Time;durP1;ratioP1;P1;durP2;ratioP2;P2;SDS_P1;SDS_P2;PMS_P1;PMS_P2;Temp;Humidity;BMP_temperature;BMP_pressure;BME280_temperature;BME280_humidity;BME280_pressure;Samples;Min_cycle;Max_cycle;Signal;HPM_P1;HPM_P2
2021/12/23 00:02:06;;;;;;;45.00;30.40;;;;;;;;;;5031965;28;20041;-59
2021/12/23 00:04:33;;;;;;;44.40;29.35;;;;;;;;;;5032464;28;20037;-59
2021/12/23 00:07:00;;;;;;;41.22;29.75;;;;;;;;;;5031971;28;20049;-59
2021/12/23 00:09:49;;;;;;;44.67;30.48;;;;;;;;;;5032090;28;20057;-59
2021/12/23 00:12:17;;;;;;;40.90;31.45;;;;;;;;;;5032307;28;20403;-61
2021/12/23 00:14:46;;;;;;;40.65;29.73;;;;;;;;;;5036131;28;20500;-57
2021/12/23 00:17:28;;;;;;;44.35;29.30;;;;;;;;;;5031953;28;20096;-59
2021/12/23 00:25:20;;;;;;;44.72;31.50;;;;;;;;;;5035423;28;20045;-58
2021/12/23 00:27:47;;;;;;;41.67;27.90;;;;;;;;;;5032053;28;20076;-58
2021/12/23 00:30:14;;;;;;;44.88;29.00;;;;;;;;;;5030402;28;20053;-58
2021/12/23 00:32:41;;;;;;;45.63;32.25;;;;;;;;;;5031704;28;20038;-58
2021/12/23 00:35:10;;;;;;;53.03;36.03;;;;;;;;;;5031577;28;20072;-58
2021/12/23 00:37:41;;;;;;;50.88;32.70;;;;;;;;;;5031730;28;20053;-57
2021/12/23 00:40:12;;;;;;;48.63;33.42;;;;;;;;;;5031812;28;20440;-60
2021/12/23 00:42:40;;;;;;;51.15;35.67;;;;;;;;;;5035221;28;20048;-58
2021/12/23 00:45:10;;;;;;;46.83;32.95;;;;;;;;;;5035627;28;20045;-61
2021/12/23 00:47:37;;;;;;;43.75;31.45;;;;;;;;;;5035331;28;20041;-59
2021/12/23 00:50:05;;;;;;;53.85;32.72;;;;;;;;;;5035386;28;20042;-59
2021/12/23 00:52:35;;;;;;;46.85;32.15;;;;;;;;;;5035020;28;20502;-58
2021/12/23 00:55:04;;;;;;;43.20;30.90;;;;;;;;;;5040920;28;20045;-59
2021/12/23 00:57:36;;;;;;;48.20;33.28;;;;;;;;;;5035454;28;20388;-58
2021/12/23 01:00:06;;;;;;;48.63;31.65;;;;;;;;;;5035664;28;20037;-58
2021/12/23 01:02:33;;;;;;;48.10;30.90;;;;;;;;;;5034798;28;20045;-58
2021/12/23 01:05:02;;;;;;;46.30;31.48;;;;;;;;;;5035378;28;20499;-59
2021/12/23 01:07:29;;;;;;;47.35;29.77;;;;;;;;;;5036358;28;20045;-60
2021/12/23 01:09:56;;;;;;;45.30;32.13;;;;;;;;;;5035042;28;20056;-59
2021/12/23 01:12:29;;;;;;;43.15;31.73;;;;;;;;;;5035200;28;20373;-59
2021/12/23 01:15:00;;;;;;;42.28;29.77;;;;;;;;;;5035006;28;20045;-59
2021/12/23 01:19:55;;;;;;;46.47;29.98;;;;;;;;;;5054621;28;20040;-59
2021/12/23 01:22:23;;;;;;;42.72;30.75;;;;;;;;;;5054584;28;20045;-59
2021/12/23 01:24:50;;;;;;;45.88;31.95;;;;;;;;;;5034954;28;20045;-59
2021/12/23 01:27:17;;;;;;;46.40;32.53;;;;;;;;;;5034789;28;20120;-59
2021/12/23 01:29:44;;;;;;;45.42;31.00;;;;;;;;;;5034797;28;20492;-60
2021/12/23 01:32:11;;;;;;;44.05;30.25;;;;;;;;;;5034845;28;20045;-59
2021/12/23 01:34:38;;;;;;;45.42;31.35;;;;;;;;;;5034487;28;20112;-59
2021/12/23 01:37:05;;;;;;;39.67;27.92;;;;;;;;;;5034512;28;20048;-60
2021/12/23 01:39:32;;;;;;;41.88;30.92;;;;;;;;;;5034343;28;20052;-59
2021/12/23 01:41:59;;;;;;;43.17;29.65;;;;;;;;;;5034748;28;20542;-59
2021/12/23 01:44:27;;;;;;;42.45;31.48;;;;;;;;;;5034449;28;20554;-58
2021/12/23 01:46:54;;;;;;;52.30;33.20;;;;;;;;;;5034234;28;20049;-59
2021/12/23 01:49:21;;;;;;;46.15;32.90;;;;;;;;;;5034747;28;20042;-57
2021/12/23 01:51:48;;;;;;;45.45;31.42;;;;;;;;;;5034104;28;20041;-59
2021/12/23 01:54:14;;;;;;;45.45;30.92;;;;;;;;;;5034267;28;20037;-59
2021/12/23 01:56:42;;;;;;;40.00;31.65;;;;;;;;;;5034213;28;20053;-59
2021/12/23 01:59:09;;;;;;;46.75;30.00;;;;;;;;;;5034324;28;20041;-58
2021/12/23 02:01:41;;;;;;;37.47;27.80;;;;;;;;;;5033869;28;20091;-59
2021/12/23 02:04:08;;;;;;;40.83;28.60;;;;;;;;;;5034464;28;20057;-58
2021/12/23 02:06:35;;;;;;;40.85;30.92;;;;;;;;;;5034063;28;20038;-59
2021/12/23 02:09:04;;;;;;;39.58;28.55;;;;;;;;;;5034069;28;20049;-58
2021/12/23 02:11:31;;;;;;;37.47;26.83;;;;;;;;;;5034164;28;20404;-58
2021/12/23 02:13:59;;;;;;;43.75;30.33;;;;;;;;;;5048696;28;20042;-58
2021/12/23 02:16:26;;;;;;;35.22;27.17;;;;;;;;;;5034264;28;20049;-58
2021/12/23 02:18:53;;;;;;;36.03;25.45;;;;;;;;;;5033428;28;20573;-58
2021/12/23 02:21:20;;;;;;;37.58;26.25;;;;;;;;;;5033766;28;20051;-55
2021/12/23 02:23:47;;;;;;;37.13;27.10;;;;;;;;;;5033328;28;20095;-58
2021/12/23 02:26:14;;;;;;;39.83;27.23;;;;;;;;;;5034142;28;20045;-59
2021/12/23 02:28:41;;;;;;;34.35;26.42;;;;;;;;;;5033390;28;20045;-58
2021/12/23 02:31:08;;;;;;;37.40;27.33;;;;;;;;;;5033690;28;20041;-59
2021/12/23 02:33:35;;;;;;;39.47;28.15;;;;;;;;;;5033031;28;20061;-59
2021/12/23 02:36:02;;;;;;;38.80;26.98;;;;;;;;;;5033506;28;20554;-59
2021/12/23 02:38:29;;;;;;;37.55;25.58;;;;;;;;;;5033168;28;20049;-58
2021/12/23 02:40:56;;;;;;;37.92;26.58;;;;;;;;;;5033521;28;20123;-59
2021/12/23 02:43:27;;;;;;;32.22;25.02;;;;;;;;;;5032966;28;20072;-56
2021/12/23 02:45:57;;;;;;;31.25;23.30;;;;;;;;;;5033137;28;20038;-57
2021/12/23 02:48:30;;;;;;;34.10;25.83;;;;;;;;;;5033663;28;20136;-57
2021/12/23 02:50:58;;;;;;;36.78;26.02;;;;;;;;;;5032987;28;20125;-58
2021/12/23 02:53:25;;;;;;;32.67;25.20;;;;;;;;;;5052315;28;20094;-56
2021/12/23 02:55:56;;;;;;;38.85;27.23;;;;;;;;;;5052663;28;20049;-57
2021/12/23 02:58:24;;;;;;;35.03;26.00;;;;;;;;;;5052891;28;20104;-53
2021/12/23 03:00:52;;;;;;;33.78;26.95;;;;;;;;;;5052787;28;20114;-54
2021/12/23 03:03:20;;;;;;;38.05;26.58;;;;;;;;;;5052685;28;20132;-55
2021/12/23 03:05:52;;;;;;;40.75;27.17;;;;;;;;;;5052635;28;20045;-58
2021/12/23 03:08:36;;;;;;;34.17;26.63;;;;;;;;;;5051034;28;20036;-53
2021/12/23 03:11:07;;;;;;;35.95;25.00;;;;;;;;;;5053007;28;20045;-58
2021/12/23 03:13:34;;;;;;;35.42;24.73;;;;;;;;;;5052828;28;20051;-58
2021/12/23 03:16:02;;;;;;;36.05;26.23;;;;;;;;;;5052694;28;20487;-58
2021/12/23 03:18:29;;;;;;;34.15;24.88;;;;;;;;;;5052606;28;20090;-58
2021/12/23 03:20:57;;;;;;;38.10;26.33;;;;;;;;;;5052782;28;20048;-59
2021/12/23 03:23:24;;;;;;;34.85;24.70;;;;;;;;;;5052545;28;20045;-58
2021/12/23 03:25:51;;;;;;;36.83;25.75;;;;;;;;;;5052642;28;20041;-59
2021/12/23 03:28:18;;;;;;;37.47;28.00;;;;;;;;;;5052665;28;20365;-58
2021/12/23 03:30:46;;;;;;;37.85;28.00;;;;;;;;;;5052751;28;20086;-58
2021/12/23 03:33:14;;;;;;;34.13;25.92;;;;;;;;;;5052405;28;20048;-58
2021/12/23 03:35:41;;;;;;;39.15;27.38;;;;;;;;;;5052316;28;20045;-58
2021/12/23 03:38:08;;;;;;;35.83;26.67;;;;;;;;;;5052645;28;20055;-59
2021/12/23 03:40:36;;;;;;;30.98;24.92;;;;;;;;;;5052119;28;20434;-58
2021/12/23 03:43:03;;;;;;;31.20;25.02;;;;;;;;;;5052332;28;20045;-58
2021/12/23 03:45:30;;;;;;;37.05;25.95;;;;;;;;;;5052110;28;20041;-58
2021/12/23 03:47:57;;;;;;;32.97;25.45;;;;;;;;;;5052673;28;20052;-58
2021/12/23 03:50:26;;;;;;;33.95;24.15;;;;;;;;;;5052158;28;20503;-58
2021/12/23 03:52:53;;;;;;;33.92;23.95;;;;;;;;;;5052482;28;20056;-58
2021/12/23 03:55:20;;;;;;;35.08;25.50;;;;;;;;;;5052033;28;20051;-57
2021/12/23 03:57:47;;;;;;;29.75;23.85;;;;;;;;;;5052309;28;20411;-58
2021/12/23 04:00:17;;;;;;;36.28;23.90;;;;;;;;;;5052338;28;20037;-54
2021/12/23 04:02:44;;;;;;;31.73;23.15;;;;;;;;;;5052252;28;20411;-58
2021/12/23 04:05:13;;;;;;;27.30;22.42;;;;;;;;;;5052694;28;20048;-58
2021/12/23 04:07:40;;;;;;;33.95;24.13;;;;;;;;;;5051967;28;20045;-60
2021/12/23 04:10:09;;;;;;;28.27;22.30;;;;;;;;;;5052237;28;20045;-55
2021/12/23 04:12:36;;;;;;;30.73;24.02;;;;;;;;;;5051858;28;20045;-63
2021/12/23 04:15:04;;;;;;;25.85;21.08;;;;;;;;;;5052197;28;20048;-57
2021/12/23 04:17:36;;;;;;;28.27;23.58;;;;;;;;;;5055512;28;20052;-60
2021/12/23 04:20:19;;;;;;;31.95;25.05;;;;;;;;;;5056064;28;20036;-58
2021/12/23 04:22:51;;;;;;;26.63;23.17;;;;;;;;;;5055769;28;20487;-58
2021/12/23 04:25:20;;;;;;;32.58;24.58;;;;;;;;;;5056179;28;20403;-58
2021/12/23 04:27:49;;;;;;;29.65;22.75;;;;;;;;;;5055781;28;20041;-58
2021/12/23 04:30:16;;;;;;;28.77;23.65;;;;;;;;;;5056096;28;20322;-58
2021/12/23 04:32:43;;;;;;;31.00;24.73;;;;;;;;;;5055992;28;20442;-58
2021/12/23 04:35:13;;;;;;;24.27;20.85;;;;;;;;;;5055269;28;20404;-58
2021/12/23 04:37:41;;;;;;;29.13;23.23;;;;;;;;;;5054396;28;20044;-58
2021/12/23 04:40:10;;;;;;;26.20;22.63;;;;;;;;;;5055305;28;20048;-58
2021/12/23 04:42:37;;;;;;;28.05;23.42;;;;;;;;;;5055559;28;20406;-58
2021/12/23 04:45:06;;;;;;;30.67;23.10;;;;;;;;;;5055161;28;20525;-57
2021/12/23 04:47:33;;;;;;;26.50;23.67;;;;;;;;;;5053662;28;20052;-57
2021/12/23 04:50:00;;;;;;;28.42;23.05;;;;;;;;;;5037316;28;20472;-58
2021/12/23 04:52:27;;;;;;;28.80;23.27;;;;;;;;;;5035839;28;20049;-57
2021/12/23 04:54:54;;;;;;;29.85;23.98;;;;;;;;;;5035584;28;20085;-57
2021/12/23 04:57:22;;;;;;;27.25;22.40;;;;;;;;;;5046723;28;20076;-57
2021/12/23 04:59:49;;;;;;;28.13;22.83;;;;;;;;;;5055335;28;20037;-59
2021/12/23 05:02:16;;;;;;;27.02;22.73;;;;;;;;;;5054873;28;20044;-58
2021/12/23 05:04:43;;;;;;;28.65;22.48;;;;;;;;;;5055331;28;20041;-59
2021/12/23 05:07:10;;;;;;;27.95;23.95;;;;;;;;;;5054794;28;20048;-58
2021/12/23 05:09:37;;;;;;;25.88;22.17;;;;;;;;;;5055003;28;20373;-59
2021/12/23 05:12:04;;;;;;;30.42;23.10;;;;;;;;;;5054707;28;20033;-59
2021/12/23 05:14:31;;;;;;;29.20;23.27;;;;;;;;;;5054698;28;20542;-58
2021/12/23 05:16:58;;;;;;;27.70;23.23;;;;;;;;;;5054849;28;20037;-58
2021/12/23 05:19:25;;;;;;;29.42;24.30;;;;;;;;;;5054622;28;20126;-58
2021/12/23 05:21:52;;;;;;;31.10;25.63;;;;;;;;;;5054457;28;20464;-58
2021/12/23 05:24:19;;;;;;;32.33;23.77;;;;;;;;;;5054867;28;20404;-59
2021/12/23 05:26:45;;;;;;;31.85;24.75;;;;;;;;;;5054583;28;20091;-59
2021/12/23 05:29:14;;;;;;;27.35;21.73;;;;;;;;;;5054407;28;20060;-58
2021/12/23 05:31:41;;;;;;;29.90;25.27;;;;;;;;;;5054552;28;20040;-58
2021/12/23 05:34:08;;;;;;;31.92;24.92;;;;;;;;;;5053845;28;20076;-58
2021/12/23 05:36:35;;;;;;;30.83;23.65;;;;;;;;;;5054345;28;20542;-59
2021/12/23 05:39:03;;;;;;;31.38;25.00;;;;;;;;;;5054050;28;20055;-58
2021/12/23 05:41:30;;;;;;;35.72;25.95;;;;;;;;;;5054486;28;20128;-58
2021/12/23 05:43:58;;;;;;;33.35;26.33;;;;;;;;;;5054275;28;20537;-58
2021/12/23 05:46:26;;;;;;;33.78;26.45;;;;;;;;;;5054289;28;20063;-58
2021/12/23 05:48:53;;;;;;;32.47;24.80;;;;;;;;;;5054087;28;20046;-58
2021/12/23 05:51:20;;;;;;;33.63;26.42;;;;;;;;;;5054378;28;20068;-56
2021/12/23 05:53:47;;;;;;;37.40;27.27;;;;;;;;;;5054245;28;20041;-58
2021/12/23 05:56:14;;;;;;;32.47;25.75;;;;;;;;;;5053565;28;20041;-58
2021/12/23 05:58:41;;;;;;;37.53;27.33;;;;;;;;;;5053942;28;20045;-58
2021/12/23 06:01:08;;;;;;;37.63;27.70;;;;;;;;;;5052480;28;20051;-54
2021/12/23 06:03:35;;;;;;;37.35;27.85;;;;;;;;;;5054087;28;20044;-57
2021/12/23 06:06:02;;;;;;;36.50;27.42;;;;;;;;;;5053192;28;20569;-57
2021/12/23 06:08:29;;;;;;;34.47;24.50;;;;;;;;;;5053773;28;20041;-58
2021/12/23 06:10:56;;;;;;;40.03;28.92;;;;;;;;;;5053396;28;20045;-58
2021/12/23 06:13:23;;;;;;;36.63;27.42;;;;;;;;;;5053776;28;20045;-57
2021/12/23 06:15:50;;;;;;;38.03;29.13;;;;;;;;;;5053755;28;20041;-58
2021/12/23 06:18:17;;;;;;;40.03;29.20;;;;;;;;;;5048606;28;20041;-56
2021/12/23 06:20:44;;;;;;;35.53;27.08;;;;;;;;;;5044017;28;20034;-52
2021/12/23 06:23:11;;;;;;;37.00;27.70;;;;;;;;;;5039666;28;20052;-58
2021/12/23 06:25:38;;;;;;;37.10;26.23;;;;;;;;;;5053619;28;20167;-59
2021/12/23 06:28:11;;;;;;;37.15;25.75;;;;;;;;;;5049922;28;20443;-58
2021/12/23 06:30:38;;;;;;;33.63;25.38;;;;;;;;;;5043759;28;20037;-57
2021/12/23 06:33:05;;;;;;;37.67;29.48;;;;;;;;;;5041638;28;20094;-54
2021/12/23 06:35:32;;;;;;;39.05;28.58;;;;;;;;;;5040987;28;20439;-58
2021/12/23 06:38:05;;;;;;;50.40;30.77;;;;;;;;;;5035606;28;20044;-58
2021/12/23 06:40:32;;;;;;;41.88;30.33;;;;;;;;;;5039249;28;20101;-56
2021/12/23 06:42:59;;;;;;;50.88;35.58;;;;;;;;;;5033419;28;20459;-56
2021/12/23 06:45:26;;;;;;;42.97;32.70;;;;;;;;;;5031111;28;20543;-59
2021/12/23 06:47:53;;;;;;;39.45;30.02;;;;;;;;;;5029590;28;20112;-60
2021/12/23 06:50:22;;;;;;;36.95;26.90;;;;;;;;;;5029194;28;20049;-57
2021/12/23 06:52:50;;;;;;;39.28;29.52;;;;;;;;;;5032934;28;20037;-59
2021/12/23 06:55:17;;;;;;;42.38;29.95;;;;;;;;;;5032848;28;20052;-57
2021/12/23 06:57:45;;;;;;;41.28;29.05;;;;;;;;;;5034526;28;20435;-56
2021/12/23 07:00:15;;;;;;;41.20;30.58;;;;;;;;;;5039644;28;20502;-57
2021/12/23 07:02:43;;;;;;;40.38;28.75;;;;;;;;;;5034943;28;20041;-60
2021/12/23 07:05:10;;;;;;;41.88;28.35;;;;;;;;;;5035159;28;20087;-58
2021/12/23 07:07:57;;;;;;;39.22;30.63;;;;;;;;;;5034893;28;20045;-58
2021/12/23 07:10:27;;;;;;;37.97;28.27;;;;;;;;;;5033060;28;20052;-57
2021/12/23 07:12:56;;;;;;;48.47;42.60;;;;;;;;;;5035053;28;20049;-53
2021/12/23 07:15:24;;;;;;;33.78;25.17;;;;;;;;;;5039673;28;20073;-59
2021/12/23 07:17:53;;;;;;;38.63;28.08;;;;;;;;;;5042713;28;20053;-54
2021/12/23 07:20:20;;;;;;;36.70;26.98;;;;;;;;;;5033427;28;20046;-58
2021/12/23 07:22:47;;;;;;;34.88;28.00;;;;;;;;;;5035709;28;20442;-57
2021/12/23 07:25:15;;;;;;;37.15;28.33;;;;;;;;;;5032631;28;20045;-59
2021/12/23 07:27:44;;;;;;;36.65;29.02;;;;;;;;;;5042931;28;20069;-59
2021/12/23 07:30:13;;;;;;;43.33;29.73;;;;;;;;;;5034206;28;20095;-59
2021/12/23 07:32:41;;;;;;;34.92;27.73;;;;;;;;;;5032534;28;20041;-60
2021/12/23 07:35:09;;;;;;;46.20;30.90;;;;;;;;;;5034774;28;20059;-59
2021/12/23 07:37:41;;;;;;;40.72;29.45;;;;;;;;;;5032655;28;20068;-60
2021/12/23 07:40:09;;;;;;;41.28;28.33;;;;;;;;;;5033124;28;20045;-60
2021/12/23 07:42:38;;;;;;;33.25;26.50;;;;;;;;;;5035720;28;20041;-63
2021/12/23 07:45:05;;;;;;;40.95;28.70;;;;;;;;;;5041117;28;20045;-60
2021/12/23 07:47:32;;;;;;;35.47;25.05;;;;;;;;;;5048122;28;20132;-59
2021/12/23 07:49:59;;;;;;;37.30;31.30;;;;;;;;;;5049286;28;20041;-55
2021/12/23 07:52:26;;;;;;;43.05;31.13;;;;;;;;;;5052351;28;20048;-59
2021/12/23 07:54:53;;;;;;;39.67;30.73;;;;;;;;;;5053826;28;20069;-60
2021/12/23 07:57:20;;;;;;;38.28;30.05;;;;;;;;;;5052770;28;20140;-57
2021/12/23 07:59:47;;;;;;;37.22;28.52;;;;;;;;;;5053921;28;20095;-57
2021/12/23 08:02:14;;;;;;;40.92;31.50;;;;;;;;;;5054257;28;20048;-58
2021/12/23 08:04:45;;;;;;;44.17;30.92;;;;;;;;;;5053385;28;20071;-58
2021/12/23 08:07:12;;;;;;;44.83;30.58;;;;;;;;;;5052013;28;20875;-60
2021/12/23 08:09:39;;;;;;;48.17;31.00;;;;;;;;;;5053294;28;20439;-58
2021/12/23 08:12:08;;;;;;;43.17;31.48;;;;;;;;;;5052807;28;20369;-58
2021/12/23 08:14:35;;;;;;;45.17;31.75;;;;;;;;;;5051143;28;20049;-58
2021/12/23 08:17:19;;;;;;;50.42;28.27;;;;;;;;;;5042424;28;20041;-58
2021/12/23 08:19:46;;;;;;;40.35;31.73;;;;;;;;;;5035698;28;20476;-57
2021/12/23 08:22:13;;;;;;;42.53;31.67;;;;;;;;;;5035772;28;20042;-58
2021/12/23 08:24:40;;;;;;;43.08;32.17;;;;;;;;;;5036200;28;20041;-58
2021/12/23 08:27:08;;;;;;;43.15;34.05;;;;;;;;;;5035657;28;20502;-57
2021/12/23 08:29:35;;;;;;;43.45;32.85;;;;;;;;;;5036349;28;20049;-58
2021/12/23 08:32:03;;;;;;;45.72;29.80;;;;;;;;;;5035895;28;20523;-58
2021/12/23 08:34:34;;;;;;;42.00;29.63;;;;;;;;;;5035639;28;20053;-57
2021/12/23 08:37:02;;;;;;;46.38;32.80;;;;;;;;;;5035943;28;20504;-58
2021/12/23 08:39:29;;;;;;;42.65;31.63;;;;;;;;;;5035904;28;20369;-58
2021/12/23 08:41:56;;;;;;;42.58;32.40;;;;;;;;;;5035581;28;20096;-59
2021/12/23 08:44:23;;;;;;;44.88;29.42;;;;;;;;;;5035647;28;20041;-58
2021/12/23 08:46:49;;;;;;;42.10;30.65;;;;;;;;;;5035951;28;20060;-58
2021/12/23 08:49:16;;;;;;;55.50;37.75;;;;;;;;;;5035315;28;20087;-58
2021/12/23 08:51:43;;;;;;;47.25;32.60;;;;;;;;;;5035574;28;20049;-58
2021/12/23 08:54:10;;;;;;;42.97;30.20;;;;;;;;;;5035059;28;20038;-58
2021/12/23 08:56:39;;;;;;;45.08;30.58;;;;;;;;;;5035421;28;20041;-59
2021/12/23 08:59:09;;;;;;;42.33;28.40;;;;;;;;;;5035526;28;20132;-58
2021/12/23 09:01:38;;;;;;;48.63;32.08;;;;;;;;;;5034433;28;20044;-58
2021/12/23 09:04:05;;;;;;;43.67;28.83;;;;;;;;;;5049639;28;20068;-59
2021/12/23 09:06:32;;;;;;;47.00;32.35;;;;;;;;;;5035221;28;20411;-58
2021/12/23 09:08:59;;;;;;;41.47;31.38;;;;;;;;;;5035187;28;20053;-58
2021/12/23 09:11:26;;;;;;;42.42;29.77;;;;;;;;;;5035185;28;20120;-58
2021/12/23 09:13:53;;;;;;;45.17;32.40;;;;;;;;;;5035103;28;20087;-58
2021/12/23 09:16:20;;;;;;;43.90;31.73;;;;;;;;;;5034679;28;20099;-57
2021/12/23 09:18:47;;;;;;;46.67;33.05;;;;;;;;;;5035099;28;20033;-59
2021/12/23 09:21:14;;;;;;;52.53;34.45;;;;;;;;;;5042408;28;20395;-58
2021/12/23 09:23:59;;;;;;;47.53;33.95;;;;;;;;;;5054902;28;20496;-58
2021/12/23 09:26:26;;;;;;;52.30;32.83;;;;;;;;;;5054475;28;20044;-58
2021/12/23 09:29:02;;;;;;;47.42;32.95;;;;;;;;;;5054700;28;20132;-59
2021/12/23 09:34:14;;;;;;;46.72;30.90;;;;;;;;;;5053847;28;20509;-59
2021/12/23 09:36:41;;;;;;;51.15;32.47;;;;;;;;;;5054260;28;20041;-59
2021/12/23 09:39:11;;;;;;;56.60;36.72;;;;;;;;;;5053982;28;20048;-59
2021/12/23 09:41:40;;;;;;;48.03;31.85;;;;;;;;;;5054763;28;20407;-59
2021/12/23 09:44:09;;;;;;;48.58;34.10;;;;;;;;;;5054248;28;20045;-58
2021/12/23 09:46:36;;;;;;;44.90;31.50;;;;;;;;;;5054157;28;20048;-59
2021/12/23 09:49:05;;;;;;;49.70;30.40;;;;;;;;;;5054201;28;20450;-58
2021/12/23 09:51:34;;;;;;;48.60;33.63;;;;;;;;;;5054371;28;20068;-60
2021/12/23 09:54:04;;;;;;;50.55;33.50;;;;;;;;;;5053963;28;20072;-59
2021/12/23 09:56:32;;;;;;;48.72;30.00;;;;;;;;;;5054330;28;20033;-60
2021/12/23 09:59:00;;;;;;;47.55;29.23;;;;;;;;;;5053424;28;20066;-58
2021/12/23 10:01:28;;;;;;;51.08;33.80;;;;;;;;;;5053948;28;20048;-59
2021/12/23 10:03:56;;;;;;;46.97;30.58;;;;;;;;;;5054082;28;20049;-59
2021/12/23 10:06:26;;;;;;;45.00;29.80;;;;;;;;;;5052547;28;20045;-59
2021/12/23 10:08:54;;;;;;;54.83;33.70;;;;;;;;;;5040238;28;20412;-59
2021/12/23 10:31:37;;;;;;;47.58;30.25;;;;;;;;;;5053487;28;20056;-58
2021/12/23 10:39:47;;;;;;;58.58;35.47;;;;;;;;;;5033450;28;20041;-55
2021/12/23 10:42:23;;;;;;;55.80;35.42;;;;;;;;;;5037856;28;20492;-57
2021/12/23 10:44:56;;;;;;;54.53;35.90;;;;;;;;;;5033676;28;20052;-58
2021/12/23 10:47:49;;;;;;;49.20;30.45;;;;;;;;;;5033654;28;20049;-58
2021/12/23 10:50:35;;;;;;;54.05;32.35;;;;;;;;;;5033391;28;20044;-58
2021/12/23 10:53:06;;;;;;;44.40;30.73;;;;;;;;;;5033280;28;20491;-57
2021/12/23 10:58:20;;;;;;;49.00;31.38;;;;;;;;;;5033627;28;20125;-57
2021/12/23 11:00:54;;;;;;;43.15;29.00;;;;;;;;;;5032968;28;20041;-58
2021/12/23 11:03:28;;;;;;;49.03;28.92;;;;;;;;;;5033357;28;20542;-63
2021/12/23 11:06:09;;;;;;;41.78;28.23;;;;;;;;;;5032503;28;20049;-58
2021/12/23 11:08:50;;;;;;;42.47;30.30;;;;;;;;;;5039382;28;20068;-55
2021/12/23 11:42:24;;;;;;;41.30;25.75;;;;;;;;;;4993636;28;20081;-58
2021/12/23 11:44:51;;;;;;;39.17;25.75;;;;;;;;;;5034915;28;20046;-60
2021/12/23 11:47:18;;;;;;;37.17;24.48;;;;;;;;;;5034947;28;20578;-58
2021/12/23 11:49:47;;;;;;;33.97;24.65;;;;;;;;;;5032645;28;20511;-58
2021/12/23 11:52:14;;;;;;;37.28;26.02;;;;;;;;;;5039469;28;20503;-56
2021/12/23 11:54:43;;;;;;;37.03;25.33;;;;;;;;;;5040145;28;20041;-56
2021/12/23 11:57:16;;;;;;;37.78;26.92;;;;;;;;;;5039766;28;20053;-58
2021/12/23 11:59:58;;;;;;;39.28;24.10;;;;;;;;;;5042427;28;20045;-59
2021/12/23 12:02:25;;;;;;;43.28;27.58;;;;;;;;;;5042538;28;20049;-58
2021/12/23 12:04:59;;;;;;;35.65;25.70;;;;;;;;;;5050308;28;20248;-58
2021/12/23 12:07:27;;;;;;;39.65;23.00;;;;;;;;;;5049624;28;20385;-58
2021/12/23 12:10:01;;;;;;;33.50;24.73;;;;;;;;;;5047804;28;20049;-59
2021/12/23 12:12:31;;;;;;;37.03;25.70;;;;;;;;;;5045407;28;20049;-59
2021/12/23 12:14:59;;;;;;;37.53;27.17;;;;;;;;;;5046740;28;20049;-59
2021/12/23 12:17:26;;;;;;;39.83;26.17;;;;;;;;;;5043126;28;20041;-53
2021/12/23 12:20:00;;;;;;;42.75;27.20;;;;;;;;;;5048042;28;20072;-58
2021/12/23 12:22:45;;;;;;;39.05;27.38;;;;;;;;;;5049397;28;20132;-59
2021/12/23 12:25:24;;;;;;;41.65;26.40;;;;;;;;;;5044139;28;20052;-58
2021/12/23 12:28:13;;;;;;;36.72;26.55;;;;;;;;;;5045900;28;20052;-56
2021/12/23 12:30:50;;;;;;;40.08;27.10;;;;;;;;;;5046363;28;20045;-59
2021/12/23 12:33:23;;;;;;;35.38;24.60;;;;;;;;;;5046920;28;20049;-59
2021/12/23 12:35:50;;;;;;;35.50;24.02;;;;;;;;;;5045671;28;20545;-59
2021/12/23 12:38:21;;;;;;;42.72;25.88;;;;;;;;;;5049731;28;20048;-58
2021/12/23 12:40:58;;;;;;;39.72;25.77;;;;;;;;;;5048576;28;20045;-57
2021/12/23 12:43:44;;;;;;;33.75;23.95;;;;;;;;;;5050449;28;20037;-64
2021/12/23 12:46:14;;;;;;;37.30;25.67;;;;;;;;;;5047474;28;20052;-63
2021/12/23 12:49:09;;;;;;;38.78;26.33;;;;;;;;;;5042534;28;20041;-63
2021/12/23 12:51:39;;;;;;;38.85;26.27;;;;;;;;;;5049328;28;20503;-64
2021/12/23 12:54:16;;;;;;;40.38;26.55;;;;;;;;;;5051682;28;20136;-63
2021/12/23 12:56:47;;;;;;;32.90;24.73;;;;;;;;;;5051488;28;20048;-64
2021/12/23 12:59:15;;;;;;;40.20;24.88;;;;;;;;;;5050775;28;20041;-65
2021/12/23 13:01:47;;;;;;;40.00;24.08;;;;;;;;;;5044967;28;20048;-62
2021/12/23 13:04:41;;;;;;;37.47;25.27;;;;;;;;;;5049992;28;20041;-62
2021/12/23 13:07:28;;;;;;;33.92;23.05;;;;;;;;;;5044035;28;21475;-62
2021/12/23 13:10:19;;;;;;;46.95;24.65;;;;;;;;;;5049346;28;20068;-63
2021/12/23 13:13:10;;;;;;;32.97;22.70;;;;;;;;;;5048255;28;20116;-61
2021/12/23 13:15:57;;;;;;;31.27;21.90;;;;;;;;;;5047078;28;20713;-61
2021/12/23 13:18:25;;;;;;;32.33;22.50;;;;;;;;;;5051648;28;20128;-63
2021/12/23 13:20:55;;;;;;;32.85;23.08;;;;;;;;;;5049322;28;20103;-62
2021/12/23 13:23:23;;;;;;;34.78;24.98;;;;;;;;;;5048121;28;20042;-61
2021/12/23 13:26:01;;;;;;;32.50;22.75;;;;;;;;;;5044166;28;20045;-63
2021/12/23 13:28:40;;;;;;;32.25;23.15;;;;;;;;;;5044015;28;20047;-62
2021/12/23 13:31:29;;;;;;;35.55;23.20;;;;;;;;;;5052561;28;20487;-64
2021/12/23 13:34:03;;;;;;;29.20;20.92;;;;;;;;;;5051709;28;20094;-61
2021/12/23 13:36:49;;;;;;;34.80;23.42;;;;;;;;;;5052677;28;20044;-61
2021/12/23 13:39:19;;;;;;;30.95;22.75;;;;;;;;;;5054337;28;20127;-60
2021/12/23 13:41:49;;;;;;;33.35;23.77;;;;;;;;;;5033991;28;20053;-62
2021/12/23 13:44:16;;;;;;;33.45;22.55;;;;;;;;;;5032711;28;20050;-62
2021/12/23 13:46:43;;;;;;;35.10;24.05;;;;;;;;;;5032161;28;20559;-61
2021/12/23 13:49:11;;;;;;;31.83;22.88;;;;;;;;;;5032840;28;20065;-61
2021/12/23 13:51:40;;;;;;;35.33;24.55;;;;;;;;;;5034323;28;20132;-60
2021/12/23 13:54:13;;;;;;;34.83;26.08;;;;;;;;;;5034285;28;20047;-59
2021/12/23 13:56:49;;;;;;;35.25;24.58;;;;;;;;;;5034365;28;20038;-59
2021/12/23 13:59:26;;;;;;;36.83;25.65;;;;;;;;;;5034362;28;20072;-60
2021/12/23 14:02:11;;;;;;;35.78;24.13;;;;;;;;;;5033538;28;20061;-59
2021/12/23 14:04:45;;;;;;;;;;;;;;;;;;5034363;28;20061;-61
2021/12/23 14:07:27;;;;;;;33.83;23.10;;;;;;;;;;5033978;28;19921;-59
2021/12/23 14:10:00;;;;;;;33.08;23.55;;;;;;;;;;5035768;28;20059;-59
2021/12/23 14:13:10;;;;;;;34.65;22.70;;;;;;;;;;5034600;28;20053;-60
2021/12/23 14:15:51;;;;;;;32.30;22.92;;;;;;;;;;5016465;28;20071;-60
2021/12/23 14:18:33;;;;;;;33.03;22.48;;;;;;;;;;5034098;28;20049;-60
2021/12/23 14:23:40;;;;;;;32.55;22.48;;;;;;;;;;5032024;28;20046;-61
2021/12/23 14:26:08;;;;;;;35.35;24.25;;;;;;;;;;5031877;28;20041;-61
2021/12/23 14:29:14;;;;;;;35.22;24.65;;;;;;;;;;5031602;28;20053;-62
2021/12/23 14:31:44;;;;;;;35.90;25.48;;;;;;;;;;5021671;28;20046;-62
2021/12/23 14:34:11;;;;;;;33.88;24.55;;;;;;;;;;5033661;28;20050;-62
2021/12/23 14:36:50;;;;;;;46.97;28.38;;;;;;;;;;5033399;28;20049;-61
2021/12/23 14:39:32;;;;;;;38.25;26.25;;;;;;;;;;5033824;28;20049;-60
2021/12/23 14:42:02;;;;;;;44.47;28.13;;;;;;;;;;5033666;28;20557;-60
2021/12/23 14:44:33;;;;;;;36.40;27.63;;;;;;;;;;5033583;28;20046;-60
2021/12/23 14:47:29;;;;;;;42.53;29.77;;;;;;;;;;5033702;28;20391;-60
2021/12/23 14:50:15;;;;;;;47.63;27.90;;;;;;;;;;5033437;28;20052;-61
2021/12/23 14:52:52;;;;;;;34.97;25.08;;;;;;;;;;5033382;28;20504;-60
2021/12/23 14:55:23;;;;;;;34.00;26.05;;;;;;;;;;5033260;28;20497;-59
2021/12/23 14:57:57;;;;;;;39.88;25.13;;;;;;;;;;5033512;28;20049;-60
2021/12/23 15:00:28;;;;;;;;;;;;;;;;;;5032844;28;20053;-60
2021/12/23 15:03:06;;;;;;;36.72;26.27;;;;;;;;;;5033499;28;19927;-61
2021/12/23 15:05:37;;;;;;;32.58;24.35;;;;;;;;;;5031207;28;20049;-62
2021/12/23 15:08:23;;;;;;;38.03;26.95;;;;;;;;;;5031194;28;20045;-62
2021/12/23 15:10:55;;;;;;;37.80;25.63;;;;;;;;;;5039264;28;20440;-62
2021/12/23 15:13:28;;;;;;;40.97;27.17;;;;;;;;;;5033793;28;20041;-61
2021/12/23 15:16:16;;;;;;;43.15;28.67;;;;;;;;;;5031246;28;20049;-61
2021/12/23 15:19:11;;;;;;;41.38;27.67;;;;;;;;;;5031721;28;20042;-61
2021/12/23 15:21:55;;;;;;;38.20;24.92;;;;;;;;;;5032601;28;20461;-60
2021/12/23 15:24:30;;;;;;;43.95;28.73;;;;;;;;;;5033230;28;20048;-61
2021/12/23 15:27:23;;;;;;;45.10;29.08;;;;;;;;;;5034746;28;20034;-59
2021/12/23 15:29:52;;;;;;;43.20;27.45;;;;;;;;;;5036970;28;20129;-62
2021/12/23 15:32:28;;;;;;;41.55;27.17;;;;;;;;;;5033004;28;20128;-62
2021/12/23 15:35:11;;;;;;;46.45;30.48;;;;;;;;;;5037165;28;20110;-62
2021/12/23 15:37:40;;;;;;;61.90;27.85;;;;;;;;;;5034766;28;20038;-62
2021/12/23 15:40:24;;;;;;;36.30;24.48;;;;;;;;;;5035155;28;20404;-62
2021/12/23 15:42:58;;;;;;;37.85;25.33;;;;;;;;;;5034582;28;20092;-62
2021/12/23 15:45:26;;;;;;;36.53;25.55;;;;;;;;;;5035621;28;20040;-62
2021/12/23 15:47:56;;;;;;;42.83;27.63;;;;;;;;;;5043495;28;20052;-63
2021/12/23 15:50:27;;;;;;;33.25;24.60;;;;;;;;;;5042952;28;20037;-61
2021/12/23 15:53:00;;;;;;;38.10;25.05;;;;;;;;;;5041693;28;20587;-62